sensor_id;sensor_type;location;lat;lon;timestamp;temperature;humidity
21563;DHT22;10942;47.894;11.424;2024-02-21T00:55:27;2.70;99.90
21563;DHT22;10942;47.894;11.424;2024-02-21T00:57:52;2.70;99.90
21563;DHT22;10942;47.894;11.424;2024-02-21T01:00:18;2.70;99.90
21563;DHT22;10942;47.894;11.424;2024-02-21T01:02:44;2.70;99.90
21563;DHT22;10942;47.894;11.424;2024-02-21T01:05:10;2.70;99.90
21563;DHT22;10942;47.894;11.424;2024-02-21T01:07:35;2.60;99.90
21563;DHT22;10942;47.894;11.424;2024-02-21T01:10:01;2.70;99.90
21563;DHT22;10942;47.894;11.424;2024-02-21T01:12:27;2.60;99.90
21563;DHT22;10942;47.894;11.424;2024-02-21T01:14:53;2.60;99.90
21563;DHT22;10942;47.894;11.424;2024-02-21T01:17:18;2.60;99.90
21563;DHT22;10942;47.894;11.424;2024-02-21T01:19:46;2.60;99.90
21563;DHT22;10942;47.894;11.424;2024-02-21T01:22:12;2.60;99.90
21563;DHT22;10942;47.894;11.424;2024-02-21T01:24:37;2.70;99.90
21563;DHT22;10942;47.894;11.424;2024-02-21T01:27:03;2.70;99.90
21563;DHT22;10942;47.894;11.424;2024-02-21T01:29:29;2.70;99.90
21563;DHT22;10942;47.894;11.424;2024-02-21T01:31:54;2.70;99.90
21563;DHT22;10942;47.894;11.424;2024-02-21T01:34:20;2.70;99.90
21563;DHT22;10942;47.894;11.424;2024-02-21T01:36:46;2.70;99.90
21563;DHT22;10942;47.894;11.424;2024-02-21T01:39:11;2.70;99.90
21563;DHT22;10942;47.894;11.424;2024-02-21T01:41:37;2.60;99.90
21563;DHT22;10942;47.894;11.424;2024-02-21T01:44:03;2.60;99.90
21563;DHT22;10942;47.894;11.424;2024-02-21T01:46:29;2.60;99.90
21563;DHT22;10942;47.894;11.424;2024-02-21T01:48:56;2.50;99.90
21563;DHT22;10942;47.894;11.424;2024-02-21T01:51:24;2.60;99.90
21563;DHT22;10942;47.894;11.424;2024-02-21T01:53:51;2.60;99.90
21563;DHT22;10942;47.894;11.424;2024-02-21T01:56:17;2.60;99.90
21563;DHT22;10942;47.894;11.424;2024-02-21T01:58:43;2.60;99.90
21563;DHT22;10942;47.894;11.424;2024-02-21T02:01:10;2.70;99.90
21563;DHT22;10942;47.894;11.424;2024-02-21T02:03:36;2.70;99.90
21563;DHT22;10942;47.894;11.424;2024-02-21T02:06:04;2.70;99.90
21563;DHT22;10942;47.894;11.424;2024-02-21T02:08:30;2.70;99.90
21563;DHT22;10942;47.894;11.424;2024-02-21T02:10:57;2.70;99.90
21563;DHT22;10942;47.894;11.424;2024-02-21T02:13:23;2.70;99.90
21563;DHT22;10942;47.894;11.424;2024-02-21T02:15:49;2.60;99.90
21563;DHT22;10942;47.894;11.424;2024-02-21T02:18:17;2.70;99.90
21563;DHT22;10942;47.894;11.424;2024-02-21T02:20:44;2.70;99.90
21563;DHT22;10942;47.894;11.424;2024-02-21T02:25:47;2.70;99.90
21563;DHT22;10942;47.894;11.424;2024-02-21T02:28:14;2.70;99.90
21563;DHT22;10942;47.894;11.424;2024-02-21T02:30:40;2.80;99.90
21563;DHT22;10942;47.894;11.424;2024-02-21T02:33:06;2.80;99.90
21563;DHT22;10942;47.894;11.424;2024-02-21T02:35:32;2.90;99.90
21563;DHT22;10942;47.894;11.424;2024-02-21T02:37:58;2.80;99.90
21563;DHT22;10942;47.894;11.424;2024-02-21T02:40:24;2.80;99.90
21563;DHT22;10942;47.894;11.424;2024-02-21T02:42:50;2.90;99.90
21563;DHT22;10942;47.894;11.424;2024-02-21T02:45:17;2.80;99.90
21563;DHT22;10942;47.894;11.424;2024-02-21T02:47:44;2.90;99.90
21563;DHT22;10942;47.894;11.424;2024-02-21T02:50:11;2.90;99.90
21563;DHT22;10942;47.894;11.424;2024-02-21T02:52:37;2.90;99.90
21563;DHT22;10942;47.894;11.424;2024-02-21T02:55:04;2.80;99.90
21563;DHT22;10942;47.894;11.424;2024-02-21T02:57:30;2.90;99.90
21563;DHT22;10942;47.894;11.424;2024-02-21T02:59:56;2.90;99.90
21563;DHT22;10942;47.894;11.424;2024-02-21T03:02:22;2.90;99.90
21563;DHT22;10942;47.894;11.424;2024-02-21T03:04:48;2.90;99.90
21563;DHT22;10942;47.894;11.424;2024-02-21T03:07:14;2.90;99.90
21563;DHT22;10942;47.894;11.424;2024-02-21T03:09:40;2.90;99.90
21563;DHT22;10942;47.894;11.424;2024-02-21T03:12:08;2.90;99.90
21563;DHT22;10942;47.894;11.424;2024-02-21T03:14:34;2.90;99.90
21563;DHT22;10942;47.894;11.424;2024-02-21T03:17:01;2.90;99.90
21563;DHT22;10942;47.894;11.424;2024-02-21T03:19:27;2.90;99.90
21563;DHT22;10942;47.894;11.424;2024-02-21T03:21:54;3.00;99.90
21563;DHT22;10942;47.894;11.424;2024-02-21T03:24:20;2.90;99.90
21563;DHT22;10942;47.894;11.424;2024-02-21T03:26:46;3.00;99.90
21563;DHT22;10942;47.894;11.424;2024-02-21T03:29:14;3.00;99.90
21563;DHT22;10942;47.894;11.424;2024-02-21T03:31:40;3.00;99.90
21563;DHT22;10942;47.894;11.424;2024-02-21T03:34:05;3.00;99.90
21563;DHT22;10942;47.894;11.424;2024-02-21T03:36:31;3.00;99.90
21563;DHT22;10942;47.894;11.424;2024-02-21T03:38:57;2.90;99.90
21563;DHT22;10942;47.894;11.424;2024-02-21T03:41:22;2.90;99.90
21563;DHT22;10942;47.894;11.424;2024-02-21T03:43:48;2.90;99.90
21563;DHT22;10942;47.894;11.424;2024-02-21T03:46:15;2.90;99.90
21563;DHT22;10942;47.894;11.424;2024-02-21T03:48:40;2.90;99.90
21563;DHT22;10942;47.894;11.424;2024-02-21T03:51:07;2.90;99.90
21563;DHT22;10942;47.894;11.424;2024-02-21T03:53:33;3.00;99.90
21563;DHT22;10942;47.894;11.424;2024-02-21T03:56:03;3.00;99.90
21563;DHT22;10942;47.894;11.424;2024-02-21T03:58:33;3.00;99.90
21563;DHT22;10942;47.894;11.424;2024-02-21T04:01:02;3.00;99.90
21563;DHT22;10942;47.894;11.424;2024-02-21T04:03:29;2.90;99.90
21563;DHT22;10942;47.894;11.424;2024-02-21T04:05:54;2.90;99.90
21563;DHT22;10942;47.894;11.424;2024-02-21T04:08:21;3.00;99.90
21563;DHT22;10942;47.894;11.424;2024-02-21T04:10:47;3.00;99.90
21563;DHT22;10942;47.894;11.424;2024-02-21T04:13:12;3.00;99.90
21563;DHT22;10942;47.894;11.424;2024-02-21T04:15:38;3.00;99.90
21563;DHT22;10942;47.894;11.424;2024-02-21T04:18:04;3.00;99.90
21563;DHT22;10942;47.894;11.424;2024-02-21T04:20:29;3.00;99.90
21563;DHT22;10942;47.894;11.424;2024-02-21T04:22:56;3.00;99.90
21563;DHT22;10942;47.894;11.424;2024-02-21T04:25:22;3.00;99.90
21563;DHT22;10942;47.894;11.424;2024-02-21T04:27:48;3.00;99.90
21563;DHT22;10942;47.894;11.424;2024-02-21T04:30:14;3.00;99.90
21563;DHT22;10942;47.894;11.424;2024-02-21T04:32:39;3.00;99.90
21563;DHT22;10942;47.894;11.424;2024-02-21T04:35:06;3.00;99.90
21563;DHT22;10942;47.894;11.424;2024-02-21T04:37:32;3.00;99.90
21563;DHT22;10942;47.894;11.424;2024-02-21T04:39:58;2.90;99.90
21563;DHT22;10942;47.894;11.424;2024-02-21T04:42:24;3.00;99.90
21563;DHT22;10942;47.894;11.424;2024-02-21T04:44:49;3.00;99.90
21563;DHT22;10942;47.894;11.424;2024-02-21T04:47:15;3.00;99.90
21563;DHT22;10942;47.894;11.424;2024-02-21T04:49:41;3.00;99.90
21563;DHT22;10942;47.894;11.424;2024-02-21T04:52:07;3.00;99.90
21563;DHT22;10942;47.894;11.424;2024-02-21T04:54:32;3.00;99.90
21563;DHT22;10942;47.894;11.424;2024-02-21T04:57:00;3.00;99.90
21563;DHT22;10942;47.894;11.424;2024-02-21T04:59:26;2.90;99.90
21563;DHT22;10942;47.894;11.424;2024-02-21T05:01:52;2.90;99.90
21563;DHT22;10942;47.894;11.424;2024-02-21T05:04:18;2.80;99.90
21563;DHT22;10942;47.894;11.424;2024-02-21T05:06:43;2.80;99.90
21563;DHT22;10942;47.894;11.424;2024-02-21T05:09:10;2.80;99.90
21563;DHT22;10942;47.894;11.424;2024-02-21T05:11:36;2.80;99.90
21563;DHT22;10942;47.894;11.424;2024-02-21T05:14:03;2.70;99.90
21563;DHT22;10942;47.894;11.424;2024-02-21T05:16:30;2.70;99.90
21563;DHT22;10942;47.894;11.424;2024-02-21T05:18:56;2.70;99.90
21563;DHT22;10942;47.894;11.424;2024-02-21T05:21:23;2.70;99.90
21563;DHT22;10942;47.894;11.424;2024-02-21T05:23:50;2.70;99.90
21563;DHT22;10942;47.894;11.424;2024-02-21T05:26:24;2.60;99.90
21563;DHT22;10942;47.894;11.424;2024-02-21T05:28:50;2.60;99.90
21563;DHT22;10942;47.894;11.424;2024-02-21T05:31:19;2.60;99.90
21563;DHT22;10942;47.894;11.424;2024-02-21T05:33:47;2.50;99.90
21563;DHT22;10942;47.894;11.424;2024-02-21T05:36:13;2.50;99.90
21563;DHT22;10942;47.894;11.424;2024-02-21T05:38:39;2.40;99.90
21563;DHT22;10942;47.894;11.424;2024-02-21T05:41:05;2.40;99.90
21563;DHT22;10942;47.894;11.424;2024-02-21T05:43:31;2.40;99.90
21563;DHT22;10942;47.894;11.424;2024-02-21T05:45:57;2.40;99.90
21563;DHT22;10942;47.894;11.424;2024-02-21T05:48:23;2.30;99.90
21563;DHT22;10942;47.894;11.424;2024-02-21T05:50:49;2.30;99.90
21563;DHT22;10942;47.894;11.424;2024-02-21T05:53:15;2.30;99.90
21563;DHT22;10942;47.894;11.424;2024-02-21T05:55:41;2.20;99.90
21563;DHT22;10942;47.894;11.424;2024-02-21T05:58:07;2.20;99.90
21563;DHT22;10942;47.894;11.424;2024-02-21T06:00:36;2.30;99.90
21563;DHT22;10942;47.894;11.424;2024-02-21T06:03:02;2.30;99.90
21563;DHT22;10942;47.894;11.424;2024-02-21T06:05:28;2.20;99.90
21563;DHT22;10942;47.894;11.424;2024-02-21T06:07:53;2.20;99.90
21563;DHT22;10942;47.894;11.424;2024-02-21T06:42:03;2.80;99.90
21563;DHT22;10942;47.894;11.424;2024-02-21T06:44:28;2.80;99.90
21563;DHT22;10942;47.894;11.424;2024-02-21T06:46:54;3.00;99.90
21563;DHT22;10942;47.894;11.424;2024-02-21T06:49:20;3.30;99.90
21563;DHT22;10942;47.894;11.424;2024-02-21T06:51:46;3.60;99.90
21563;DHT22;10942;47.894;11.424;2024-02-21T06:54:11;3.90;99.90
21563;DHT22;10942;47.894;11.424;2024-02-21T06:56:37;3.80;99.90
21563;DHT22;10942;47.894;11.424;2024-02-21T06:59:03;3.60;99.90
21563;DHT22;10942;47.894;11.424;2024-02-21T07:01:29;3.60;99.90
21563;DHT22;10942;47.894;11.424;2024-02-21T07:03:55;3.50;99.90
21563;DHT22;10942;47.894;11.424;2024-02-21T07:06:22;3.40;99.90
21563;DHT22;10942;47.894;11.424;2024-02-21T07:08:47;3.40;99.90
21563;DHT22;10942;47.894;11.424;2024-02-21T07:11:13;3.20;99.90
21563;DHT22;10942;47.894;11.424;2024-02-21T07:13:39;3.20;99.90
21563;DHT22;10942;47.894;11.424;2024-02-21T07:16:06;3.20;99.90
21563;DHT22;10942;47.894;11.424;2024-02-21T07:18:31;3.20;99.90
21563;DHT22;10942;47.894;11.424;2024-02-21T07:20:57;3.20;99.90
21563;DHT22;10942;47.894;11.424;2024-02-21T07:23:24;3.30;99.90
21563;DHT22;10942;47.894;11.424;2024-02-21T07:25:49;3.40;99.90
21563;DHT22;10942;47.894;11.424;2024-02-21T07:28:15;3.60;99.90
21563;DHT22;10942;47.894;11.424;2024-02-21T07:30:42;3.70;99.90
21563;DHT22;10942;47.894;11.424;2024-02-21T07:33:08;3.80;99.90
21563;DHT22;10942;47.894;11.424;2024-02-21T07:35:34;3.70;99.90
21563;DHT22;10942;47.894;11.424;2024-02-21T07:38:00;3.60;99.90
21563;DHT22;10942;47.894;11.424;2024-02-21T07:40:25;3.70;99.90
21563;DHT22;10942;47.894;11.424;2024-02-21T07:42:51;3.90;99.90
21563;DHT22;10942;47.894;11.424;2024-02-21T07:45:17;3.90;99.90
21563;DHT22;10942;47.894;11.424;2024-02-21T07:47:43;4.00;99.90
21563;DHT22;10942;47.894;11.424;2024-02-21T07:50:09;4.10;99.90
21563;DHT22;10942;47.894;11.424;2024-02-21T07:52:35;4.10;99.90
21563;DHT22;10942;47.894;11.424;2024-02-21T07:55:01;4.30;99.90
21563;DHT22;10942;47.894;11.424;2024-02-21T07:57:27;4.40;99.90
21563;DHT22;10942;47.894;11.424;2024-02-21T07:59:52;4.50;99.90
21563;DHT22;10942;47.894;11.424;2024-02-21T08:02:18;4.50;99.90
21563;DHT22;10942;47.894;11.424;2024-02-21T08:04:44;4.60;99.90
21563;DHT22;10942;47.894;11.424;2024-02-21T08:07:09;4.60;99.90
21563;DHT22;10942;47.894;11.424;2024-02-21T08:09:35;4.80;99.90
21563;DHT22;10942;47.894;11.424;2024-02-21T08:12:04;5.00;99.90
21563;DHT22;10942;47.894;11.424;2024-02-21T08:14:30;5.60;99.90
21563;DHT22;10942;47.894;11.424;2024-02-21T08:21:48;6.80;99.90
21563;DHT22;10942;47.894;11.424;2024-02-21T08:29:07;7.70;99.90
21563;DHT22;10942;47.894;11.424;2024-02-21T08:39:03;9.90;99.90
21563;DHT22;10942;47.894;11.424;2024-02-21T08:41:33;9.90;99.90
21563;DHT22;10942;47.894;11.424;2024-02-21T08:43:59;9.90;99.90
21563;DHT22;10942;47.894;11.424;2024-02-21T09:01:04;11.40;99.90
21563;DHT22;10942;47.894;11.424;2024-02-21T09:03:34;11.30;99.90
21563;DHT22;10942;47.894;11.424;2024-02-21T09:06:00;11.50;99.90
21563;DHT22;10942;47.894;11.424;2024-02-21T09:08:26;11.40;99.90
21563;DHT22;10942;47.894;11.424;2024-02-21T09:10:52;11.60;99.90
21563;DHT22;10942;47.894;11.424;2024-02-21T09:13:18;11.60;99.90
21563;DHT22;10942;47.894;11.424;2024-02-21T09:15:44;11.50;99.90
21563;DHT22;10942;47.894;11.424;2024-02-21T09:18:10;11.60;99.90
21563;DHT22;10942;47.894;11.424;2024-02-21T09:20:35;12.00;99.90
21563;DHT22;10942;47.894;11.424;2024-02-21T09:23:01;11.60;99.90
21563;DHT22;10942;47.894;11.424;2024-02-21T09:27:56;12.20;99.90
21563;DHT22;10942;47.894;11.424;2024-02-21T09:30:23;12.30;99.90
21563;DHT22;10942;47.894;11.424;2024-02-21T09:32:49;12.50;99.90
21563;DHT22;10942;47.894;11.424;2024-02-21T09:35:15;12.80;99.90
21563;DHT22;10942;47.894;11.424;2024-02-21T09:37:41;13.00;99.90
21563;DHT22;10942;47.894;11.424;2024-02-21T09:42:42;13.40;99.90
21563;DHT22;10942;47.894;11.424;2024-02-21T09:45:22;13.50;99.90
21563;DHT22;10942;47.894;11.424;2024-02-21T09:48:06;13.80;99.90
21563;DHT22;10942;47.894;11.424;2024-02-21T09:50:38;14.30;99.90
21563;DHT22;10942;47.894;11.424;2024-02-21T09:53:06;14.30;99.90
21563;DHT22;10942;47.894;11.424;2024-02-21T09:58:05;14.70;99.90
21563;DHT22;10942;47.894;11.424;2024-02-21T10:00:31;15.30;99.90
21563;DHT22;10942;47.894;11.424;2024-02-21T10:02:58;15.60;99.90
21563;DHT22;10942;47.894;11.424;2024-02-21T10:05:24;15.70;99.90
21563;DHT22;10942;47.894;11.424;2024-02-21T10:07:51;15.90;99.90
21563;DHT22;10942;47.894;11.424;2024-02-21T10:10:17;16.00;99.90
21563;DHT22;10942;47.894;11.424;2024-02-21T10:12:53;15.70;99.90
21563;DHT22;10942;47.894;11.424;2024-02-21T10:15:24;15.60;99.90
21563;DHT22;10942;47.894;11.424;2024-02-21T10:18:02;16.20;99.90
21563;DHT22;10942;47.894;11.424;2024-02-21T10:23:03;16.70;99.90
21563;DHT22;10942;47.894;11.424;2024-02-21T10:27:59;17.30;99.90
21563;DHT22;10942;47.894;11.424;2024-02-21T10:30:25;17.30;99.90
21563;DHT22;10942;47.894;11.424;2024-02-21T10:32:51;17.20;99.90
21563;DHT22;10942;47.894;11.424;2024-02-21T10:35:32;16.90;99.90
21563;DHT22;10942;47.894;11.424;2024-02-21T10:37:59;16.80;99.90
21563;DHT22;10942;47.894;11.424;2024-02-21T10:40:26;17.40;99.90
21563;DHT22;10942;47.894;11.424;2024-02-21T10:43:01;17.20;99.90
21563;DHT22;10942;47.894;11.424;2024-02-21T10:45:35;17.10;99.90
21563;DHT22;10942;47.894;11.424;2024-02-21T10:48:14;17.00;99.90
21563;DHT22;10942;47.894;11.424;2024-02-21T10:50:54;17.30;99.90
21563;DHT22;10942;47.894;11.424;2024-02-21T10:56:25;17.00;99.90
21563;DHT22;10942;47.894;11.424;2024-02-21T10:58:52;16.30;99.90
21563;DHT22;10942;47.894;11.424;2024-02-21T11:01:19;16.00;99.90
21563;DHT22;10942;47.894;11.424;2024-02-21T11:03:46;15.80;99.90
21563;DHT22;10942;47.894;11.424;2024-02-21T11:06:13;15.10;99.90
21563;DHT22;10942;47.894;11.424;2024-02-21T11:08:40;14.90;99.90
21563;DHT22;10942;47.894;11.424;2024-02-21T11:11:06;14.30;99.90
21563;DHT22;10942;47.894;11.424;2024-02-21T11:13:35;14.10;99.90
21563;DHT22;10942;47.894;11.424;2024-02-21T11:16:11;14.10;99.90
21563;DHT22;10942;47.894;11.424;2024-02-21T11:18:38;13.90;99.90
21563;DHT22;10942;47.894;11.424;2024-02-21T11:21:04;13.70;99.90
21563;DHT22;10942;47.894;11.424;2024-02-21T11:23:33;13.50;99.90
21563;DHT22;10942;47.894;11.424;2024-02-21T11:26:09;13.20;99.90
21563;DHT22;10942;47.894;11.424;2024-02-21T11:28:35;13.20;99.90
21563;DHT22;10942;47.894;11.424;2024-02-21T11:31:14;13.00;99.90
21563;DHT22;10942;47.894;11.424;2024-02-21T11:33:43;12.80;99.90
21563;DHT22;10942;47.894;11.424;2024-02-21T11:36:09;12.90;99.90
21563;DHT22;10942;47.894;11.424;2024-02-21T11:38:35;13.00;99.90
21563;DHT22;10942;47.894;11.424;2024-02-21T11:41:01;12.70;99.90
21563;DHT22;10942;47.894;11.424;2024-02-21T11:43:27;12.60;99.90
21563;DHT22;10942;47.894;11.424;2024-02-21T11:46:02;12.60;99.90
21563;DHT22;10942;47.894;11.424;2024-02-21T11:48:29;12.60;99.90
21563;DHT22;10942;47.894;11.424;2024-02-21T11:50:56;12.50;99.90
21563;DHT22;10942;47.894;11.424;2024-02-21T11:53:22;12.60;99.90
21563;DHT22;10942;47.894;11.424;2024-02-21T11:55:49;12.70;99.90
21563;DHT22;10942;47.894;11.424;2024-02-21T11:58:15;12.90;99.90
21563;DHT22;10942;47.894;11.424;2024-02-21T12:00:41;13.00;99.90
21563;DHT22;10942;47.894;11.424;2024-02-21T12:03:07;12.80;99.90
21563;DHT22;10942;47.894;11.424;2024-02-21T12:05:33;12.70;99.90
21563;DHT22;10942;47.894;11.424;2024-02-21T12:07:59;12.70;99.90
21563;DHT22;10942;47.894;11.424;2024-02-21T12:10:28;12.60;99.90
21563;DHT22;10942;47.894;11.424;2024-02-21T12:12:54;12.60;99.90
21563;DHT22;10942;47.894;11.424;2024-02-21T12:15:31;12.40;99.90
21563;DHT22;10942;47.894;11.424;2024-02-21T12:17:57;12.40;99.90
21563;DHT22;10942;47.894;11.424;2024-02-21T12:20:25;12.40;99.90
21563;DHT22;10942;47.894;11.424;2024-02-21T12:22:51;12.50;99.90
21563;DHT22;10942;47.894;11.424;2024-02-21T12:25:19;12.50;99.90
21563;DHT22;10942;47.894;11.424;2024-02-21T12:27:46;12.50;99.90
21563;DHT22;10942;47.894;11.424;2024-02-21T12:30:11;12.60;99.90
21563;DHT22;10942;47.894;11.424;2024-02-21T12:32:37;12.50;99.90
21563;DHT22;10942;47.894;11.424;2024-02-21T12:35:03;12.50;99.90
21563;DHT22;10942;47.894;11.424;2024-02-21T12:37:29;12.50;99.90
21563;DHT22;10942;47.894;11.424;2024-02-21T12:39:55;12.40;99.90
21563;DHT22;10942;47.894;11.424;2024-02-21T12:42:21;12.30;99.90
21563;DHT22;10942;47.894;11.424;2024-02-21T12:44:49;12.40;99.90
21563;DHT22;10942;47.894;11.424;2024-02-21T12:47:14;12.30;99.90
21563;DHT22;10942;47.894;11.424;2024-02-21T12:49:40;12.30;99.90
21563;DHT22;10942;47.894;11.424;2024-02-21T12:52:06;12.20;99.90
21563;DHT22;10942;47.894;11.424;2024-02-21T13:04:20;12.50;99.90
21563;DHT22;10942;47.894;11.424;2024-02-21T13:06:48;12.50;99.90
21563;DHT22;10942;47.894;11.424;2024-02-21T13:09:14;12.40;99.90
21563;DHT22;10942;47.894;11.424;2024-02-21T13:11:40;12.40;99.90
21563;DHT22;10942;47.894;11.424;2024-02-21T13:14:07;12.40;99.90
21563;DHT22;10942;47.894;11.424;2024-02-21T13:16:33;12.40;99.90
21563;DHT22;10942;47.894;11.424;2024-02-21T13:19:07;12.40;99.60
21563;DHT22;10942;47.894;11.424;2024-02-21T13:21:34;12.40;99.90
21563;DHT22;10942;47.894;11.424;2024-02-21T13:24:00;12.40;99.90
21563;DHT22;10942;47.894;11.424;2024-02-21T13:26:26;12.40;99.90
21563;DHT22;10942;47.894;11.424;2024-02-21T13:28:53;12.50;99.90
21563;DHT22;10942;47.894;11.424;2024-02-21T13:31:18;12.40;99.90
21563;DHT22;10942;47.894;11.424;2024-02-21T13:33:44;12.40;99.90
21563;DHT22;10942;47.894;11.424;2024-02-21T13:36:10;12.40;99.90
21563;DHT22;10942;47.894;11.424;2024-02-21T13:38:36;12.40;99.90
21563;DHT22;10942;47.894;11.424;2024-02-21T13:41:03;12.40;99.90
21563;DHT22;10942;47.894;11.424;2024-02-21T13:43:29;12.30;99.90
21563;DHT22;10942;47.894;11.424;2024-02-21T13:45:58;12.30;99.90
21563;DHT22;10942;47.894;11.424;2024-02-21T13:48:24;12.40;99.90
21563;DHT22;10942;47.894;11.424;2024-02-21T13:50:50;12.40;99.90
21563;DHT22;10942;47.894;11.424;2024-02-21T13:53:16;12.40;99.90
21563;DHT22;10942;47.894;11.424;2024-02-21T13:55:44;12.40;99.90
21563;DHT22;10942;47.894;11.424;2024-02-21T13:58:11;12.40;99.90
21563;DHT22;10942;47.894;11.424;2024-02-21T14:00:36;12.40;99.90
21563;DHT22;10942;47.894;11.424;2024-02-21T14:03:02;12.40;99.90
21563;DHT22;10942;47.894;11.424;2024-02-21T14:05:29;12.30;99.90
21563;DHT22;10942;47.894;11.424;2024-02-21T14:07:55;12.40;99.90
21563;DHT22;10942;47.894;11.424;2024-02-21T14:10:21;12.30;99.90
21563;DHT22;10942;47.894;11.424;2024-02-21T14:12:47;12.30;99.90
21563;DHT22;10942;47.894;11.424;2024-02-21T14:15:16;12.30;99.90
21563;DHT22;10942;47.894;11.424;2024-02-21T14:17:44;12.40;99.90
21563;DHT22;10942;47.894;11.424;2024-02-21T14:20:10;12.30;99.90
21563;DHT22;10942;47.894;11.424;2024-02-21T14:22:36;12.30;99.90
21563;DHT22;10942;47.894;11.424;2024-02-21T14:25:04;12.40;99.90
21563;DHT22;10942;47.894;11.424;2024-02-21T14:27:33;12.40;99.90
21563;DHT22;10942;47.894;11.424;2024-02-21T14:29:58;12.40;99.90
21563;DHT22;10942;47.894;11.424;2024-02-21T14:32:24;12.40;99.90
21563;DHT22;10942;47.894;11.424;2024-02-21T14:34:50;12.40;99.90
21563;DHT22;10942;47.894;11.424;2024-02-21T14:37:16;12.40;99.90
21563;DHT22;10942;47.894;11.424;2024-02-21T14:39:42;12.30;99.90
21563;DHT22;10942;47.894;11.424;2024-02-21T14:42:08;12.30;99.90
21563;DHT22;10942;47.894;11.424;2024-02-21T14:44:35;12.30;99.90
21563;DHT22;10942;47.894;11.424;2024-02-21T14:47:02;12.30;99.90
21563;DHT22;10942;47.894;11.424;2024-02-21T14:49:29;12.40;99.90
21563;DHT22;10942;47.894;11.424;2024-02-21T14:51:55;12.40;99.90
21563;DHT22;10942;47.894;11.424;2024-02-21T14:54:20;12.30;99.90
21563;DHT22;10942;47.894;11.424;2024-02-21T14:56:46;12.30;99.90
21563;DHT22;10942;47.894;11.424;2024-02-21T14:59:12;12.30;99.90
21563;DHT22;10942;47.894;11.424;2024-02-21T15:01:38;12.20;99.90
21563;DHT22;10942;47.894;11.424;2024-02-21T15:06:31;12.20;99.90
21563;DHT22;10942;47.894;11.424;2024-02-21T15:09:03;12.10;99.90
21563;DHT22;10942;47.894;11.424;2024-02-21T15:11:29;12.10;99.90
21563;DHT22;10942;47.894;11.424;2024-02-21T15:13:55;12.10;99.90
21563;DHT22;10942;47.894;11.424;2024-02-21T15:16:21;12.10;99.90
21563;DHT22;10942;47.894;11.424;2024-02-21T15:18:46;12.00;99.90
21563;DHT22;10942;47.894;11.424;2024-02-21T15:21:12;12.00;99.90
21563;DHT22;10942;47.894;11.424;2024-02-21T15:23:41;12.00;99.90
21563;DHT22;10942;47.894;11.424;2024-02-21T15:26:07;11.90;99.90
21563;DHT22;10942;47.894;11.424;2024-02-21T15:30:58;11.70;99.90
21563;DHT22;10942;47.894;11.424;2024-02-21T15:33:24;11.60;99.90
21563;DHT22;10942;47.894;11.424;2024-02-21T15:35:51;11.60;99.90
21563;DHT22;10942;47.894;11.424;2024-02-21T15:40:45;11.50;99.90
21563;DHT22;10942;47.894;11.424;2024-02-21T15:43:10;11.30;99.90
21563;DHT22;10942;47.894;11.424;2024-02-21T15:45:36;11.40;99.90
21563;DHT22;10942;47.894;11.424;2024-02-21T15:48:02;11.20;99.90
21563;DHT22;10942;47.894;11.424;2024-02-21T15:50:29;11.20;99.90
21563;DHT22;10942;47.894;11.424;2024-02-21T15:52:55;11.10;99.90
21563;DHT22;10942;47.894;11.424;2024-02-21T15:55:21;11.00;99.90
21563;DHT22;10942;47.894;11.424;2024-02-21T15:57:47;11.10;99.90
21563;DHT22;10942;47.894;11.424;2024-02-21T16:00:14;10.90;99.90
21563;DHT22;10942;47.894;11.424;2024-02-21T16:02:40;10.80;99.90
21563;DHT22;10942;47.894;11.424;2024-02-21T16:41:53;10.40;99.90
21563;DHT22;10942;47.894;11.424;2024-02-21T16:44:21;10.40;99.90
21563;DHT22;10942;47.894;11.424;2024-02-21T16:54:05;9.80;99.90
21563;DHT22;10942;47.894;11.424;2024-02-21T16:56:36;9.80;99.90
21563;DHT22;10942;47.894;11.424;2024-02-21T16:59:03;9.90;99.90
21563;DHT22;10942;47.894;11.424;2024-02-21T17:03:55;8.20;99.90
21563;DHT22;10942;47.894;11.424;2024-02-21T17:11:13;9.50;99.90
21563;DHT22;10942;47.894;11.424;2024-02-21T17:35:35;9.20;99.90
21563;DHT22;10942;47.894;11.424;2024-02-21T17:38:04;9.20;99.90
21563;DHT22;10942;47.894;11.424;2024-02-21T17:40:32;9.10;99.90
21563;DHT22;10942;47.894;11.424;2024-02-21T17:42:58;9.00;99.90
21563;DHT22;10942;47.894;11.424;2024-02-21T17:45:23;9.00;99.90
21563;DHT22;10942;47.894;11.424;2024-02-21T18:09:57;8.70;99.90
21563;DHT22;10942;47.894;11.424;2024-02-21T18:12:23;8.40;99.90
21563;DHT22;10942;47.894;11.424;2024-02-21T18:14:49;8.50;99.90
21563;DHT22;10942;47.894;11.424;2024-02-21T18:22:07;8.30;99.90
21563;DHT22;10942;47.894;11.424;2024-02-21T18:24:34;8.10;99.90
21563;DHT22;10942;47.894;11.424;2024-02-21T18:26:59;8.10;99.90
21563;DHT22;10942;47.894;11.424;2024-02-21T18:29:26;8.00;99.90
21563;DHT22;10942;47.894;11.424;2024-02-21T18:31:53;7.90;99.90
21563;DHT22;10942;47.894;11.424;2024-02-21T18:34:19;7.90;99.90
21563;DHT22;10942;47.894;11.424;2024-02-21T18:36:45;7.90;99.90
21563;DHT22;10942;47.894;11.424;2024-02-21T18:39:14;7.90;99.90
21563;DHT22;10942;47.894;11.424;2024-02-21T18:41:40;7.80;99.90
21563;DHT22;10942;47.894;11.424;2024-02-21T18:49:06;7.60;99.90
21563;DHT22;10942;47.894;11.424;2024-02-21T18:51:32;7.70;99.90
21563;DHT22;10942;47.894;11.424;2024-02-21T18:53:58;7.70;99.90
21563;DHT22;10942;47.894;11.424;2024-02-21T18:56:24;7.60;99.90
21563;DHT22;10942;47.894;11.424;2024-02-21T19:01:23;7.50;99.90
21563;DHT22;10942;47.894;11.424;2024-02-21T19:03:49;7.50;99.90
21563;DHT22;10942;47.894;11.424;2024-02-21T19:06:15;7.50;99.90
21563;DHT22;10942;47.894;11.424;2024-02-21T19:08:41;7.50;99.90
21563;DHT22;10942;47.894;11.424;2024-02-21T19:11:08;7.50;99.90
21563;DHT22;10942;47.894;11.424;2024-02-21T19:13:33;7.40;99.90
21563;DHT22;10942;47.894;11.424;2024-02-21T19:15:59;7.30;99.90
21563;DHT22;10942;47.894;11.424;2024-02-21T19:18:25;7.30;99.90
21563;DHT22;10942;47.894;11.424;2024-02-21T19:20:50;7.30;99.90
21563;DHT22;10942;47.894;11.424;2024-02-21T19:23:17;7.30;99.90
21563;DHT22;10942;47.894;11.424;2024-02-21T19:25:43;7.40;99.90
21563;DHT22;10942;47.894;11.424;2024-02-21T19:28:09;7.30;99.90
21563;DHT22;10942;47.894;11.424;2024-02-21T19:30:39;7.40;99.90
21563;DHT22;10942;47.894;11.424;2024-02-21T19:57:44;7.20;99.90
21563;DHT22;10942;47.894;11.424;2024-02-21T20:00:11;7.20;99.90
21563;DHT22;10942;47.894;11.424;2024-02-21T20:02:40;7.10;99.90
21563;DHT22;10942;47.894;11.424;2024-02-21T20:05:09;7.20;99.90
21563;DHT22;10942;47.894;11.424;2024-02-21T20:07:35;7.20;99.90